createdAt,value
2019-05-26T00:00:47.554Z,87.86
2019-05-26T00:01:47.676Z,87.86
2019-05-26T00:02:47.570Z,87.90
2019-05-26T00:03:47.593Z,87.81
2019-05-26T00:04:47.634Z,87.04
2019-05-26T00:05:47.673Z,87.71
2019-05-26T00:06:47.864Z,87.52
2019-05-26T00:07:48.299Z,89.34
2019-05-26T00:08:47.992Z,89.24
2019-05-26T00:09:48.825Z,88.57
2019-05-26T00:10:48.185Z,88.38
2019-05-26T00:11:48.752Z,87.81
2019-05-26T00:12:47.758Z,86.76
2019-05-26T00:13:47.942Z,86.57
2019-05-26T00:15:48.338Z,87.52
2019-05-26T00:16:47.788Z,86.85
2019-05-26T00:17:47.790Z,86.47
2019-05-26T00:18:47.844Z,86.37
2019-05-26T00:19:47.853Z,86.66
2019-05-26T00:20:47.850Z,86.28
2019-05-26T00:21:47.856Z,86.47
2019-05-26T00:22:47.924Z,86.47
2019-05-26T00:23:47.879Z,86.57
2019-05-26T00:24:47.891Z,86.57
2019-05-26T00:25:48.033Z,86.76
2019-05-26T00:26:47.918Z,87.71
2019-05-26T00:27:47.978Z,88.00
2019-05-26T00:28:48.168Z,88.19
2019-05-26T00:29:48.046Z,88.43
2019-05-26T00:30:47.984Z,89.10
2019-05-26T00:31:48.010Z,89.81
2019-05-26T00:32:48.001Z,89.67
2019-05-26T00:33:48.103Z,89.96
2019-05-26T00:34:48.028Z,89.29
2019-05-26T00:35:48.586Z,89.34
2019-05-26T00:36:48.784Z,89.39
2019-05-26T00:37:50.152Z,88.91
2019-05-26T00:38:48.098Z,88.81
2019-05-26T00:39:48.122Z,89.67
2019-05-26T00:40:48.633Z,90.06
2019-05-26T00:41:48.153Z,89.87
2019-05-26T00:42:48.183Z,89.96
2019-05-26T00:43:48.192Z,89.29
2019-05-26T00:44:48.816Z,89.77
2019-05-26T00:45:48.216Z,90.06
2019-05-26T00:46:48.208Z,90.34
2019-05-26T00:47:48.213Z,90.25
2019-05-26T00:48:49.240Z,90.63
2019-05-26T00:49:48.304Z,91.02
2019-05-26T00:50:48.269Z,90.68
2019-05-26T00:51:48.442Z,91.25
2019-05-26T00:52:48.328Z,90.68
2019-05-26T00:53:48.770Z,90.20
2019-05-26T00:54:48.421Z,90.78
2019-05-26T00:55:48.325Z,90.63
2019-05-26T00:56:48.424Z,90.97
2019-05-26T00:57:48.362Z,90.59
2019-05-26T00:58:48.370Z,91.45
2019-05-26T00:59:49.644Z,91.16
2019-05-26T01:00:48.465Z,90.88
2019-05-26T01:01:48.410Z,91.06
2019-05-26T01:02:48.425Z,91.45
2019-05-26T01:03:48.461Z,90.53
2019-05-26T01:04:48.511Z,90.53
2019-05-26T01:05:48.607Z,90.11
2019-05-26T01:06:48.686Z,90.16
2019-05-26T01:08:04.941Z,89.77
2019-05-26T01:08:48.522Z,90.88
2019-05-26T01:09:48.528Z,90.20
2019-05-26T01:10:48.553Z,90.30
2019-05-26T01:11:48.701Z,90.20
2019-05-26T01:12:48.597Z,90.30
2019-05-26T01:13:48.652Z,91.74
2019-05-26T01:14:48.599Z,92.50
2019-05-26T01:15:48.716Z,90.88
2019-05-26T01:16:48.663Z,90.88
2019-05-26T01:17:48.644Z,90.49
2019-05-26T01:18:48.664Z,90.59
2019-05-26T01:19:48.907Z,90.20
2019-05-26T01:20:48.690Z,90.49
2019-05-26T01:21:48.845Z,90.59
2019-05-26T01:22:48.959Z,91.45
2019-05-26T01:23:49.669Z,90.97
2019-05-26T01:24:48.731Z,90.20
2019-05-26T01:25:48.746Z,89.92
2019-05-26T01:26:48.754Z,90.49
2019-05-26T01:27:48.988Z,90.82
2019-05-26T01:28:48.781Z,90.25
2019-05-26T01:29:48.813Z,90.34
2019-05-26T01:30:48.843Z,90.59
2019-05-26T01:31:48.828Z,89.92
2019-05-26T01:32:48.869Z,90.20
2019-05-26T01:33:48.861Z,90.78
2019-05-26T01:34:48.867Z,90.78
2019-05-26T01:35:48.891Z,90.68
2019-05-26T01:36:49.389Z,90.20
2019-05-26T01:37:48.933Z,90.49
2019-05-26T01:38:48.932Z,90.59
2019-05-26T01:39:48.941Z,91.54
2019-05-26T01:40:48.951Z,91.06
2019-05-26T01:41:48.987Z,90.49
2019-05-26T01:42:48.977Z,90.88
2019-05-26T01:43:48.998Z,91.54
2019-05-26T01:44:49.193Z,91.45
2019-05-26T01:45:49.025Z,91.16
2019-05-26T01:46:49.105Z,90.39
2019-05-26T01:47:49.120Z,90.97
2019-05-26T01:49:49.080Z,89.73
2019-05-26T01:50:49.161Z,89.73
2019-05-26T01:51:49.216Z,90.39
2019-05-26T01:52:49.120Z,90.11
2019-05-26T01:53:49.178Z,90.39
2019-05-26T01:54:49.193Z,90.88
2019-05-26T01:55:49.171Z,90.78
2019-05-26T01:56:49.178Z,89.82
2019-05-26T01:57:49.227Z,90.11
2019-05-26T01:58:49.206Z,90.49
2019-05-26T01:59:49.376Z,91.06
2019-05-26T02:00:49.239Z,90.39
2019-05-26T02:01:49.285Z,90.78
2019-05-26T02:02:49.276Z,91.06
2019-05-26T02:03:49.270Z,91.35
2019-05-26T02:04:49.296Z,90.68
2019-05-26T02:05:49.322Z,89.92
2019-05-26T02:06:49.313Z,89.92
2019-05-26T02:07:49.334Z,90.39
2019-05-26T02:09:49.353Z,90.88
2019-05-26T02:10:49.374Z,90.59
2019-05-26T02:11:49.895Z,90.49
2019-05-26T02:13:49.416Z,91.35
2019-05-26T02:14:49.432Z,91.35
2019-05-26T02:15:49.485Z,91.06
2019-05-26T02:16:49.506Z,90.97
2019-05-26T02:17:49.473Z,91.16
2019-05-26T02:18:49.764Z,91.45
2019-05-26T02:20:49.513Z,91.93
2019-05-26T02:22:49.554Z,91.16
2019-05-26T02:23:50.187Z,91.35
2019-05-26T02:24:49.585Z,91.93
2019-05-26T02:25:49.585Z,91.83
2019-05-26T02:26:49.590Z,91.74
2019-05-26T02:27:49.639Z,91.64
2019-05-26T02:29:49.634Z,91.83
2019-05-26T02:30:49.651Z,91.64
2019-05-26T02:31:49.662Z,91.83
2019-05-26T02:32:49.678Z,91.45
2019-05-26T02:33:49.689Z,90.88
2019-05-26T02:34:49.718Z,91.83
2019-05-26T02:35:49.719Z,92.02
2019-05-26T02:36:49.737Z,92.11
2019-05-26T02:37:49.853Z,91.83
2019-05-26T02:39:02.165Z,92.11
2019-05-26T02:41:49.880Z,91.83
2019-05-26T02:42:49.827Z,92.40
2019-05-26T02:43:49.844Z,91.93
2019-05-26T02:44:49.855Z,91.93
2019-05-26T02:45:50.274Z,91.74
2019-05-26T02:46:50.753Z,92.30
2019-05-26T02:47:49.913Z,92.88
2019-05-26T02:48:50.070Z,92.79
2019-05-26T02:49:49.934Z,92.59
2019-05-26T02:50:50.159Z,92.45
2019-05-26T02:51:50.101Z,93.55
2019-05-26T02:52:49.974Z,93.45
2019-05-26T02:54:50.067Z,93.26
2019-05-26T02:55:50.026Z,93.41
2019-05-26T02:56:50.030Z,93.36
2019-05-26T02:57:50.344Z,93.07
2019-05-26T02:58:50.063Z,92.88
2019-05-26T02:59:50.075Z,93.26
2019-05-26T03:00:50.126Z,93.45
2019-05-26T03:02:02.000Z,93.60
2019-05-26T03:02:50.181Z,93.41
2019-05-26T03:03:50.186Z,93.70
2019-05-26T03:04:50.243Z,94.12
2019-05-26T03:05:50.155Z,93.21
2019-05-26T03:06:50.314Z,93.70
2019-05-26T03:07:50.825Z,94.07
2019-05-26T03:08:50.202Z,94.36
2019-05-26T03:09:50.217Z,95.03
2019-05-26T03:10:50.240Z,95.79
2019-05-26T03:12:50.958Z,95.79
2019-05-26T03:13:50.275Z,96.27
2019-05-26T03:14:50.510Z,95.65
2019-05-26T03:15:50.564Z,96.32
2019-05-26T03:16:50.360Z,96.61
2019-05-26T03:17:50.405Z,97.75
2019-05-26T03:18:50.434Z,96.70
2019-05-26T03:19:50.370Z,96.70
2019-05-26T03:20:50.389Z,97.37
2019-05-26T03:21:50.401Z,97.66
2019-05-26T03:22:51.152Z,98.03
2019-05-26T03:23:50.432Z,97.66
2019-05-26T03:24:50.441Z,97.56
2019-05-26T03:25:50.720Z,97.66
2019-05-26T03:26:51.067Z,97.66
2019-05-26T03:27:50.882Z,96.98
2019-05-26T03:28:50.708Z,97.37
2019-05-26T03:29:50.553Z,98.03
2019-05-26T03:30:50.528Z,98.13
2019-05-26T03:31:50.716Z,98.42
2019-05-26T03:33:50.748Z,97.47
2019-05-26T03:34:50.599Z,98.32
2019-05-26T03:35:50.599Z,98.32
2019-05-26T03:36:50.614Z,98.42
2019-05-26T03:37:50.629Z,97.56
2019-05-26T03:38:50.663Z,98.13
2019-05-26T03:39:50.973Z,97.94
2019-05-26T03:40:50.670Z,97.75
2019-05-26T03:41:50.682Z,98.23
2019-05-26T03:42:50.705Z,97.99
2019-05-26T03:43:51.159Z,97.61
2019-05-26T03:44:50.753Z,97.71
2019-05-26T03:45:50.752Z,97.75
2019-05-26T03:46:50.816Z,98.03
2019-05-26T03:47:50.783Z,97.94
2019-05-26T03:48:50.913Z,98.18
2019-05-26T03:49:51.314Z,98.57
2019-05-26T03:50:51.018Z,97.80
2019-05-26T03:51:50.842Z,96.94
2019-05-26T03:52:50.899Z,97.52
2019-05-26T03:53:50.914Z,97.99
2019-05-26T03:54:50.877Z,97.61
2019-05-26T03:55:50.887Z,97.89
2019-05-26T03:56:50.908Z,97.61
2019-05-26T03:57:50.922Z,98.03
2019-05-26T03:58:50.938Z,98.32
2019-05-26T03:59:50.949Z,98.80
2019-05-26T04:00:50.997Z,99.14
2019-05-26T04:01:50.982Z,98.47
2019-05-26T04:02:51.054Z,98.18
2019-05-26T04:03:51.130Z,97.99
2019-05-26T04:04:51.199Z,98.18
2019-05-26T04:05:52.607Z,97.89
2019-05-26T04:06:51.157Z,97.89
2019-05-26T04:07:51.240Z,98.57
2019-05-26T04:08:51.211Z,98.94
2019-05-26T04:10:04.005Z,98.57
2019-05-26T04:10:51.160Z,98.75
2019-05-26T04:11:51.134Z,98.75
2019-05-26T04:12:51.147Z,98.71
2019-05-26T04:13:51.149Z,98.90
2019-05-26T04:14:51.671Z,99.08
2019-05-26T04:15:51.874Z,98.90
2019-05-26T04:16:51.204Z,99.37
2019-05-26T04:17:51.498Z,99.57
2019-05-26T04:18:51.250Z,99.37
2019-05-26T04:19:51.250Z,99.57
2019-05-26T04:20:51.294Z,99.62
2019-05-26T04:21:51.302Z,99.71
2019-05-26T04:23:51.303Z,99.14
2019-05-26T04:24:52.123Z,98.75
2019-05-26T04:25:51.342Z,98.94
2019-05-26T04:27:51.369Z,99.71
2019-05-26T04:28:51.541Z,99.99
2019-05-26T04:29:51.391Z,99.33
2019-05-26T04:30:51.410Z,98.75
2019-05-26T04:31:51.444Z,98.85
2019-05-26T04:32:51.453Z,98.94
2019-05-26T04:33:51.465Z,98.47
2019-05-26T04:34:51.484Z,98.66
2019-05-26T04:35:51.474Z,98.66
2019-05-26T04:36:51.491Z,98.47
2019-05-26T04:37:51.525Z,98.94
2019-05-26T04:38:51.628Z,98.57
2019-05-26T04:39:51.968Z,98.57
2019-05-26T04:40:51.692Z,98.37
2019-05-26T04:41:51.568Z,98.57
2019-05-26T04:43:51.719Z,98.66
2019-05-26T04:44:51.785Z,98.85
2019-05-26T04:45:51.624Z,99.62
2019-05-26T04:46:51.639Z,99.80
2019-05-26T04:47:51.714Z,99.90
2019-05-26T04:48:51.838Z,99.71
2019-05-26T04:49:51.767Z,99.62
2019-05-26T04:50:52.207Z,99.62
2019-05-26T04:51:51.719Z,99.71
2019-05-26T04:53:05.336Z,99.99
2019-05-26T04:53:51.742Z,99.99
2019-05-26T04:54:51.761Z,99.80
2019-05-26T04:55:51.767Z,99.52
2019-05-26T04:56:51.792Z,99.66
2019-05-26T04:57:51.891Z,98.99
2019-05-26T04:58:51.840Z,98.80
2019-05-26T04:59:51.839Z,98.61
2019-05-26T05:00:51.844Z,98.90
2019-05-26T05:01:51.863Z,99.48
2019-05-26T05:02:51.873Z,98.71
2019-05-26T05:03:51.889Z,98.99
2019-05-26T05:04:51.913Z,98.23
2019-05-26T05:05:51.994Z,98.42
2019-05-26T05:06:51.951Z,98.23
2019-05-26T05:07:52.012Z,98.33
2019-05-26T05:08:52.605Z,98.57
2019-05-26T05:09:52.014Z,98.38
2019-05-26T05:10:52.896Z,97.61
2019-05-26T05:11:52.176Z,97.90
2019-05-26T05:12:52.105Z,97.23
2019-05-26T05:13:52.047Z,96.75
2019-05-26T05:14:52.053Z,96.94
2019-05-26T05:15:52.256Z,97.04
2019-05-26T05:16:52.235Z,96.56
2019-05-26T05:17:52.098Z,96.75
2019-05-26T05:18:52.110Z,97.04
2019-05-26T05:19:52.131Z,97.23
2019-05-26T05:20:52.168Z,96.56
2019-05-26T05:21:52.163Z,96.75
2019-05-26T05:22:52.374Z,96.80
2019-05-26T05:23:52.190Z,96.56
2019-05-26T05:24:52.249Z,95.61
2019-05-26T05:25:52.289Z,95.75
2019-05-26T05:26:52.230Z,96.13
2019-05-26T05:27:52.673Z,95.84
2019-05-26T05:28:52.344Z,95.56
2019-05-26T05:29:52.744Z,95.94
2019-05-26T05:30:52.296Z,96.42
2019-05-26T05:31:52.449Z,95.75
2019-05-26T05:32:52.400Z,95.65
2019-05-26T05:33:52.348Z,96.42
2019-05-26T05:34:52.376Z,95.75
2019-05-26T05:35:52.686Z,94.79
2019-05-26T05:36:52.432Z,94.89
2019-05-26T05:37:52.974Z,95.07
2019-05-26T05:38:52.406Z,94.79
2019-05-26T05:39:52.547Z,94.89
2019-05-26T05:40:59.491Z,94.55
2019-05-26T05:41:53.216Z,94.26
2019-05-26T05:42:52.654Z,93.69
2019-05-26T05:43:52.487Z,93.69
2019-05-26T05:44:53.376Z,93.69
2019-05-26T05:45:52.522Z,93.69
2019-05-26T05:46:52.561Z,93.98
2019-05-26T05:47:52.690Z,93.69
2019-05-26T05:48:52.561Z,94.17
2019-05-26T05:49:52.745Z,94.07
2019-05-26T05:50:52.596Z,93.79
2019-05-26T05:51:52.602Z,93.79
2019-05-26T05:52:52.620Z,93.88
2019-05-26T05:53:52.630Z,94.93
2019-05-26T05:54:52.650Z,94.36
2019-05-26T05:56:55.535Z,93.69
2019-05-26T05:57:52.699Z,93.21
2019-05-26T05:58:52.755Z,93.50
2019-05-26T05:59:52.774Z,93.50
2019-05-26T06:00:52.742Z,92.92
2019-05-26T06:01:52.767Z,93.50
2019-05-26T06:02:53.012Z,93.50
2019-05-26T06:03:52.783Z,93.45
2019-05-26T06:04:54.044Z,93.26
2019-05-26T06:05:52.871Z,91.77
2019-05-26T06:06:52.862Z,91.87
2019-05-26T06:07:52.847Z,92.35
2019-05-26T06:08:52.991Z,91.34
2019-05-26T06:09:52.876Z,91.63
2019-05-26T06:10:52.952Z,91.44
2019-05-26T06:11:56.682Z,91.20
2019-05-26T06:12:52.917Z,91.92
2019-05-26T06:13:52.939Z,91.44
2019-05-26T06:14:53.437Z,90.77
2019-05-26T06:15:52.984Z,91.53
2019-05-26T06:16:52.979Z,92.30
2019-05-26T06:17:53.055Z,91.53
2019-05-26T06:18:53.066Z,91.15
2019-05-26T06:19:53.081Z,91.82
2019-05-26T06:20:53.047Z,91.34
2019-05-26T06:21:53.058Z,91.25
2019-05-26T06:22:53.071Z,90.86
2019-05-26T06:23:53.086Z,90.67
2019-05-26T06:24:53.098Z,90.00
2019-05-26T06:25:53.115Z,89.72
2019-05-26T06:26:53.134Z,89.62
2019-05-26T06:27:53.151Z,90.00
2019-05-26T06:28:53.186Z,90.09
2019-05-26T06:29:58.947Z,90.00
2019-05-26T06:30:53.229Z,90.19
2019-05-26T06:31:53.457Z,89.62
2019-05-26T06:32:53.229Z,90.19
2019-05-26T06:33:53.241Z,90.58
2019-05-26T06:34:53.279Z,90.19
2019-05-26T06:35:53.371Z,89.90
2019-05-26T06:36:53.330Z,90.09
2019-05-26T06:37:53.674Z,90.86
2019-05-26T06:38:53.463Z,89.23
2019-05-26T06:39:53.335Z,88.99
2019-05-26T06:40:53.692Z,88.85
2019-05-26T06:41:53.782Z,89.14
2019-05-26T06:42:53.680Z,88.99
2019-05-26T06:43:53.447Z,88.61
2019-05-26T06:44:54.243Z,88.61
2019-05-26T06:45:53.480Z,88.32
2019-05-26T06:46:53.513Z,88.13
2019-05-26T06:47:53.493Z,88.13
2019-05-26T06:48:53.595Z,86.88
2019-05-26T06:49:53.484Z,87.27
2019-05-26T06:50:53.501Z,86.98
2019-05-26T06:51:53.517Z,87.27
2019-05-26T06:52:53.658Z,87.17
2019-05-26T06:53:53.767Z,86.98
2019-05-26T06:54:53.569Z,86.98
2019-05-26T06:55:53.572Z,86.69
2019-05-26T06:56:53.601Z,86.98
2019-05-26T06:57:53.595Z,86.98
2019-05-26T06:59:53.634Z,87.27
2019-05-26T07:00:53.757Z,87.55
2019-05-26T07:01:53.892Z,88.03
2019-05-26T07:02:53.675Z,88.13
2019-05-26T07:03:53.699Z,86.88
2019-05-26T07:04:53.759Z,87.37
2019-05-26T07:05:53.717Z,87.37
2019-05-26T07:07:54.049Z,87.84
2019-05-26T07:08:53.773Z,88.03
2019-05-26T07:09:53.825Z,87.84
2019-05-26T07:10:53.886Z,88.23
2019-05-26T07:11:59.685Z,88.80
2019-05-26T07:12:53.827Z,88.70
2019-05-26T07:13:53.842Z,89.09
2019-05-26T07:14:53.863Z,88.80
2019-05-26T07:15:53.878Z,89.18
2019-05-26T07:16:55.298Z,89.57
2019-05-26T07:17:53.982Z,88.70
2019-05-26T07:18:54.042Z,88.90
2019-05-26T07:19:53.977Z,88.23
2019-05-26T07:21:54.314Z,88.42
2019-05-26T07:22:54.672Z,87.94
2019-05-26T07:23:54.012Z,87.60
2019-05-26T07:24:54.468Z,86.83
2019-05-26T07:25:54.339Z,86.74
2019-05-26T07:26:54.496Z,86.74
2019-05-26T07:27:54.076Z,86.07
2019-05-26T07:28:54.071Z,86.45
2019-05-26T07:29:54.088Z,86.74
2019-05-26T07:30:54.119Z,86.35
2019-05-26T07:31:54.163Z,86.16
2019-05-26T07:32:54.148Z,86.25
2019-05-26T07:33:54.183Z,86.54
2019-05-26T07:34:54.161Z,87.07
2019-05-26T07:35:54.926Z,86.78
2019-05-26T07:36:54.353Z,85.63
2019-05-26T07:37:54.222Z,85.05
2019-05-26T07:38:54.469Z,85.63
2019-05-26T07:39:54.235Z,85.63
2019-05-26T07:40:54.301Z,84.81
2019-05-26T07:42:09.348Z,83.85
2019-05-26T07:42:54.392Z,83.85
2019-05-26T07:43:54.293Z,82.98
2019-05-26T07:44:54.328Z,84.04
2019-05-26T07:45:54.322Z,84.04
2019-05-26T07:46:54.358Z,84.23
2019-05-26T07:47:54.397Z,84.14
2019-05-26T07:48:54.433Z,83.56
2019-05-26T07:49:54.556Z,83.08
2019-05-26T07:51:54.506Z,83.65
2019-05-26T07:52:54.543Z,83.56
2019-05-26T07:53:56.235Z,82.79
2019-05-26T07:54:54.992Z,82.03
2019-05-26T07:55:54.512Z,82.03
2019-05-26T07:56:55.262Z,82.79
2019-05-26T07:57:54.587Z,81.93
2019-05-26T07:59:55.382Z,81.93
2019-05-26T08:00:54.567Z,81.45
2019-05-26T08:01:54.571Z,81.93
2019-05-26T08:02:54.586Z,82.51
2019-05-26T08:03:54.608Z,83.03
2019-05-26T08:04:54.641Z,82.41
2019-05-26T08:05:54.731Z,82.31
2019-05-26T08:06:54.732Z,82.41
2019-05-26T08:08:11.230Z,81.87
2019-05-26T08:08:54.734Z,81.68
2019-05-26T08:09:54.903Z,81.10
2019-05-26T08:10:54.707Z,81.30
2019-05-26T08:11:55.281Z,80.53
2019-05-26T08:13:54.818Z,80.63
2019-05-26T08:14:54.769Z,79.76
2019-05-26T08:15:54.858Z,79.28
2019-05-26T08:16:55.006Z,79.67
2019-05-26T08:17:54.815Z,79.67
2019-05-26T08:18:54.836Z,78.52
2019-05-26T08:19:54.851Z,78.99
2019-05-26T08:20:54.917Z,79.19
2019-05-26T08:21:54.992Z,78.32
2019-05-26T08:22:54.927Z,78.03
2019-05-26T08:23:54.923Z,79.09
2019-05-26T08:24:54.987Z,78.61
2019-05-26T08:25:54.990Z,78.65
2019-05-26T08:26:54.952Z,78.36
2019-05-26T08:27:55.027Z,77.98
2019-05-26T08:28:55.032Z,77.78
2019-05-26T08:30:55.139Z,77.01
2019-05-26T08:31:55.062Z,77.59
2019-05-26T08:32:55.100Z,77.78
2019-05-26T08:33:55.152Z,78.75
2019-05-26T08:34:55.116Z,77.50
2019-05-26T08:35:55.319Z,77.31
2019-05-26T08:36:55.113Z,77.59
2019-05-26T08:37:55.146Z,77.31
2019-05-26T08:38:55.220Z,76.54
2019-05-26T08:39:55.202Z,76.54
2019-05-26T08:40:55.307Z,76.82
2019-05-26T08:41:55.185Z,76.06
2019-05-26T08:42:55.250Z,76.06
2019-05-26T08:43:55.271Z,76.96
2019-05-26T08:44:55.303Z,76.44
2019-05-26T08:45:55.257Z,76.25
2019-05-26T08:46:55.285Z,76.15
2019-05-26T08:47:55.292Z,75.57
2019-05-26T08:48:55.348Z,74.94
2019-05-26T08:49:55.421Z,74.08
2019-05-26T08:50:55.376Z,74.55
2019-05-26T08:51:55.345Z,72.34
2019-05-26T08:52:55.506Z,71.87
2019-05-26T08:53:55.440Z,70.43
2019-05-26T08:54:55.391Z,70.72
2019-05-26T08:55:55.439Z,71.48
2019-05-26T08:56:55.425Z,71.29
2019-05-26T08:57:55.507Z,70.87
2019-05-26T08:59:55.752Z,71.45
2019-05-26T09:00:55.536Z,70.39
2019-05-26T09:01:56.260Z,70.81
2019-05-26T09:02:55.508Z,71.19
2019-05-26T09:03:55.559Z,70.52
2019-05-26T09:04:55.588Z,71.67
2019-05-26T09:05:55.670Z,71.19
2019-05-26T09:06:56.078Z,71.58
2019-05-26T09:07:55.847Z,71.39
2019-05-26T09:08:55.648Z,70.90
2019-05-26T09:09:55.637Z,70.72
2019-05-26T09:10:55.636Z,70.90
2019-05-26T09:11:55.661Z,70.52
2019-05-26T09:13:55.693Z,71.87
2019-05-26T09:14:55.753Z,71.39
2019-05-26T09:15:55.712Z,70.90
2019-05-26T09:16:55.727Z,71.19
2019-05-26T09:17:55.748Z,71.48
2019-05-26T09:18:55.782Z,71.77
2019-05-26T09:19:55.861Z,71.00
2019-05-26T09:20:56.044Z,70.81
2019-05-26T09:21:55.987Z,70.75
2019-05-26T09:22:55.832Z,70.17
2019-05-26T09:23:56.691Z,69.89
2019-05-26T09:24:55.862Z,68.54
2019-05-26T09:25:55.872Z,67.86
2019-05-26T09:26:55.882Z,68.35
2019-05-26T09:27:55.966Z,68.57
2019-05-26T09:28:56.076Z,67.13
2019-05-26T09:29:56.168Z,67.42
2019-05-26T09:30:55.951Z,67.61
2019-05-26T09:31:55.971Z,67.16
2019-05-26T09:32:56.614Z,67.16
2019-05-26T09:33:56.050Z,65.63
2019-05-26T09:34:56.131Z,66.20
2019-05-26T09:35:56.050Z,65.14
2019-05-26T09:36:57.153Z,65.14
2019-05-26T09:38:56.115Z,65.24
2019-05-26T09:39:56.091Z,65.53
2019-05-26T09:40:56.110Z,65.17
2019-05-26T09:41:56.123Z,65.17
2019-05-26T09:42:56.140Z,64.21
2019-05-26T09:43:56.157Z,64.98
2019-05-26T09:44:56.274Z,64.50
2019-05-26T09:45:56.224Z,64.79
2019-05-26T09:46:56.236Z,64.40
2019-05-26T09:47:56.258Z,64.89
2019-05-26T09:48:56.288Z,64.98
2019-05-26T09:50:56.742Z,65.17
2019-05-26T09:51:56.295Z,64.59
2019-05-26T09:52:56.650Z,63.82
2019-05-26T09:54:01.737Z,63.92
2019-05-26T09:54:56.347Z,63.73
2019-05-26T09:55:56.839Z,63.34
2019-05-26T09:56:56.388Z,63.15
2019-05-26T09:57:56.406Z,64.34
2019-05-26T09:58:56.690Z,64.34
2019-05-26T10:00:56.446Z,63.34
2019-05-26T10:01:56.462Z,62.60
2019-05-26T10:02:56.480Z,62.32
2019-05-26T10:03:56.484Z,61.65
2019-05-26T10:04:56.579Z,61.65
2019-05-26T10:06:56.677Z,60.39
2019-05-26T10:07:56.601Z,59.72
2019-05-26T10:08:56.593Z,59.04
2019-05-26T10:09:56.594Z,59.91
2019-05-26T10:10:56.651Z,59.81
2019-05-26T10:11:56.739Z,60.77
2019-05-26T10:12:56.654Z,59.14
2019-05-26T10:13:56.663Z,59.17
2019-05-26T10:14:56.672Z,59.65
2019-05-26T10:15:56.785Z,59.84
2019-05-26T10:16:56.752Z,59.33
2019-05-26T10:17:56.725Z,60.30
2019-05-26T10:18:56.746Z,60.00
2019-05-26T10:19:57.184Z,60.42
2019-05-26T10:20:56.858Z,60.13
2019-05-26T10:21:56.937Z,59.27
2019-05-26T10:23:56.824Z,60.58
2019-05-26T10:24:56.845Z,60.30
2019-05-26T10:25:56.870Z,60.39
2019-05-26T10:26:56.886Z,60.52
2019-05-26T10:27:56.893Z,60.03
2019-05-26T10:29:00.416Z,60.61
2019-05-26T10:29:56.940Z,60.42
2019-05-26T10:30:57.006Z,60.42
2019-05-26T10:31:56.974Z,60.23
2019-05-26T10:32:56.976Z,60.13
2019-05-26T10:33:56.989Z,60.32
2019-05-26T10:34:57.129Z,59.75
2019-05-26T10:35:57.044Z,60.52
2019-05-26T10:36:57.104Z,60.13
2019-05-26T10:37:57.231Z,60.80
2019-05-26T10:38:57.080Z,61.10
2019-05-26T10:39:57.223Z,60.61
2019-05-26T10:40:57.340Z,61.00
2019-05-26T10:41:57.134Z,61.68
2019-05-26T10:42:57.291Z,61.19
2019-05-26T10:43:57.167Z,61.10
2019-05-26T10:44:57.167Z,60.32
2019-05-26T10:45:57.187Z,60.55
2019-05-26T10:46:57.567Z,60.42
2019-05-26T10:47:57.419Z,60.64
2019-05-26T10:48:57.285Z,60.45
2019-05-26T10:49:57.256Z,60.83
2019-05-26T10:50:58.041Z,60.06
2019-05-26T10:52:57.309Z,61.03
2019-05-26T10:53:57.379Z,61.03
2019-05-26T10:54:57.417Z,60.48
2019-05-26T10:55:57.436Z,60.68
2019-05-26T10:56:57.518Z,60.48
2019-05-26T10:57:57.390Z,60.77
2019-05-26T10:58:57.404Z,60.31
2019-05-26T10:59:57.432Z,60.00
2019-05-26T11:00:57.440Z,60.10
2019-05-26T11:01:57.930Z,60.19
2019-05-26T11:02:58.269Z,59.61
2019-05-26T11:03:57.545Z,59.71
2019-05-26T11:04:58.242Z,60.41
2019-05-26T11:05:57.625Z,59.45
2019-05-26T11:06:57.745Z,60.31
2019-05-26T11:07:58.445Z,60.31
2019-05-26T11:08:58.945Z,60.13
2019-05-26T11:10:58.052Z,58.97
2019-05-26T11:11:58.457Z,60.03
2019-05-26T11:12:57.765Z,60.03
2019-05-26T11:14:03.035Z,60.71
2019-05-26T11:14:59.465Z,60.31
2019-05-26T11:15:58.037Z,60.13
2019-05-26T11:16:57.727Z,59.06
2019-05-26T11:17:57.740Z,60.03
2019-05-26T11:18:57.754Z,59.93
2019-05-26T11:19:57.811Z,60.71
2019-05-26T11:20:57.812Z,59.83
2019-05-26T11:21:58.493Z,60.03
2019-05-26T11:22:57.836Z,60.13
2019-05-26T11:23:57.880Z,60.03
2019-05-26T11:24:57.872Z,60.51
2019-05-26T11:25:57.885Z,61.54
2019-05-26T11:27:08.090Z,62.15
2019-05-26T11:27:57.965Z,61.38
2019-05-26T11:28:57.992Z,61.09
2019-05-26T11:29:57.949Z,60.13
2019-05-26T11:30:57.964Z,59.06
2019-05-26T11:31:57.986Z,59.35
2019-05-26T11:32:59.655Z,59.64
2019-05-26T11:33:58.249Z,59.64
2019-05-26T11:35:01.738Z,59.64
2019-05-26T11:35:58.102Z,59.06
2019-05-26T11:36:58.106Z,58.42
2019-05-26T11:37:58.099Z,58.12
2019-05-26T11:38:58.145Z,58.51
2019-05-26T11:39:58.124Z,58.54
2019-05-26T11:40:58.805Z,59.22
2019-05-26T11:42:12.330Z,59.22
2019-05-26T11:42:58.179Z,58.83
2019-05-26T11:44:58.223Z,57.84
2019-05-26T11:45:58.269Z,57.84
2019-05-26T11:46:58.267Z,57.64
2019-05-26T11:47:58.880Z,58.12
2019-05-26T11:48:58.280Z,58.42
2019-05-26T11:49:58.602Z,59.77
2019-05-26T11:50:59.071Z,59.93
2019-05-26T11:51:58.684Z,60.06
2019-05-26T11:52:58.558Z,60.61
2019-05-26T11:54:58.390Z,59.86
2019-05-26T11:55:58.409Z,60.44
2019-05-26T11:56:58.426Z,60.06
2019-05-26T11:57:58.447Z,58.73
2019-05-26T11:58:58.473Z,58.25
2019-05-26T11:59:58.483Z,58.73
2019-05-26T12:00:58.678Z,58.93
2019-05-26T12:01:58.514Z,58.35
2019-05-26T12:03:00.475Z,60.28
2019-05-26T12:03:58.681Z,59.60
2019-05-26T12:04:58.615Z,56.99
2019-05-26T12:05:59.361Z,57.35
2019-05-26T12:06:59.221Z,57.84
2019-05-26T12:08:58.635Z,57.38
2019-05-26T12:09:58.676Z,57.45
2019-05-26T12:10:58.682Z,58.35
2019-05-26T12:11:58.699Z,57.67
2019-05-26T12:12:58.813Z,58.35
2019-05-26T12:13:59.276Z,58.15
2019-05-26T12:14:58.748Z,59.25
2019-05-26T12:15:58.764Z,57.96
2019-05-26T12:16:59.228Z,57.79
2019-05-26T12:17:58.850Z,58.18
2019-05-26T12:18:59.083Z,58.02
2019-05-26T12:19:58.842Z,57.54
2019-05-26T12:20:58.861Z,56.18
2019-05-26T12:21:58.868Z,56.57
2019-05-26T12:22:58.909Z,56.18
2019-05-26T12:23:58.905Z,56.18
2019-05-26T12:24:59.694Z,56.09
2019-05-26T12:25:58.953Z,55.87
2019-05-26T12:26:59.008Z,55.47
2019-05-26T12:27:58.988Z,55.57
2019-05-26T12:28:58.996Z,55.96
2019-05-26T12:29:59.012Z,57.51
2019-05-26T12:30:59.033Z,56.63
2019-05-26T12:31:59.051Z,56.71
2019-05-26T12:32:59.068Z,57.19
2019-05-26T12:33:59.084Z,57.41
2019-05-26T12:34:59.182Z,57.41
2019-05-26T12:35:59.172Z,58.25
2019-05-26T12:36:59.146Z,57.51
2019-05-26T12:37:59.170Z,57.38
2019-05-26T12:38:59.198Z,57.21
2019-05-26T12:39:59.194Z,58.09
2019-05-26T12:40:59.215Z,57.99
2019-05-26T12:41:59.710Z,57.21
2019-05-26T12:42:59.378Z,56.73
2019-05-26T12:43:59.340Z,57.03
2019-05-26T12:44:59.330Z,57.24
2019-05-26T12:46:59.689Z,57.24
2019-05-26T12:47:59.509Z,57.51
2019-05-26T12:48:59.359Z,57.99
2019-05-26T12:49:59.371Z,58.28
2019-05-26T12:50:59.438Z,58.57
2019-05-26T12:51:59.408Z,57.70
2019-05-26T12:52:59.428Z,58.25
2019-05-26T12:53:59.518Z,58.67
2019-05-26T12:54:59.477Z,58.95
2019-05-26T12:55:59.496Z,58.76
2019-05-26T12:56:59.534Z,57.73
2019-05-26T12:57:59.522Z,57.15
2019-05-26T12:59:01.273Z,57.54
2019-05-26T12:59:59.602Z,57.56
2019-05-26T13:00:59.575Z,56.30
2019-05-26T13:01:59.588Z,56.40
2019-05-26T13:02:59.782Z,57.08
2019-05-26T13:03:59.627Z,56.40
2019-05-26T13:04:59.660Z,56.98
2019-05-26T13:06:59.693Z,56.88
2019-05-26T13:08:00.248Z,56.21
2019-05-26T13:08:59.726Z,56.79
2019-05-26T13:09:59.807Z,56.52
2019-05-26T13:11:00.011Z,56.16
2019-05-26T13:13:00.344Z,55.32
2019-05-26T13:13:59.972Z,55.42
2019-05-26T13:15:05.848Z,54.96
2019-05-26T13:16:00.312Z,54.31
2019-05-26T13:17:01.715Z,52.62
2019-05-26T13:17:59.915Z,52.40
2019-05-26T13:18:59.940Z,52.69
2019-05-26T13:19:59.950Z,51.53
2019-05-26T13:20:59.956Z,53.44
2019-05-26T13:22:00.031Z,54.09
2019-05-26T13:23:00.017Z,55.13
2019-05-26T13:24:00.020Z,57.01
2019-05-26T13:25:00.108Z,56.92
2019-05-26T13:26:00.570Z,57.59
2019-05-26T13:27:00.089Z,57.95
2019-05-26T13:28:00.111Z,58.53
2019-05-26T13:29:00.123Z,58.92
2019-05-26T13:30:00.138Z,58.75
2019-05-26T13:31:00.156Z,57.98